Time;durP1;ratioP1;P1;durP2;ratioP2;P2;SDS_P1;SDS_P2;PMS_P1;PMS_P2;Temp;Humidity;BMP_temperature;BMP_pressure;BME280_temperature;BME280_humidity;BME280_pressure;Samples;Min_cycle;Max_cycle;Signal;HPM_P1;HPM_P2
2022/06/27 00:00:57;;;;;;;27.23;19.80;;;18.40;99.90;;;;;;5089629;28;20032;-67
2022/06/27 00:03:22;;;;;;;26.77;20.83;;;18.30;99.90;;;;;;5088657;28;20598;-68
2022/06/27 00:05:48;;;;;;;27.50;23.48;;;18.30;99.90;;;;;;5088672;28;20044;-68
2022/06/27 00:08:13;;;;;;;28.60;20.25;;;18.20;99.90;;;;;;5087847;28;20052;-67
2022/06/27 00:10:40;;;;;;;25.13;22.55;;;18.20;99.90;;;;;;5088264;28;20048;-67
2022/06/27 00:13:06;;;;;;;25.60;19.85;;;18.20;99.90;;;;;;5089050;28;20036;-68
2022/06/27 00:15:32;;;;;;;23.80;21.13;;;18.20;99.90;;;;;;5089048;28;20044;-68
2022/06/27 00:17:57;;;;;;;22.05;18.50;;;18.20;99.90;;;;;;5089680;28;20035;-68
2022/06/27 00:20:24;;;;;;;21.83;18.45;;;18.20;99.90;;;;;;5090403;28;20044;-68
2022/06/27 00:22:51;;;;;;;28.45;23.02;;;18.20;99.90;;;;;;5088995;28;20044;-68
2022/06/27 00:25:16;;;;;;;23.13;20.63;;;18.10;99.90;;;;;;5087269;28;20043;-68
2022/06/27 00:27:42;;;;;;;22.05;19.55;;;18.10;99.90;;;;;;5088963;28;20036;-67
2022/06/27 00:30:08;;;;;;;22.67;20.27;;;18.10;99.90;;;;;;5090787;28;20051;-68
2022/06/27 00:32:34;;;;;;;21.42;19.08;;;18.10;99.90;;;;;;5089761;28;20116;-67
2022/06/27 00:35:00;;;;;;;25.88;20.88;;;18.10;99.90;;;;;;5090233;28;20205;-67
2022/06/27 00:37:26;;;;;;;25.98;18.88;;;18.10;99.90;;;;;;5089241;28;20036;-67
2022/06/27 00:39:51;;;;;;;34.45;21.27;;;18.10;99.90;;;;;;5089661;28;20554;-67
2022/06/27 00:42:17;;;;;;;27.55;22.42;;;18.10;99.90;;;;;;5089987;28;20040;-67
2022/06/27 00:44:43;;;;;;;25.48;22.77;;;18.10;99.90;;;;;;5089660;28;20572;-67
2022/06/27 00:47:12;;;;;;;27.95;22.88;;;18.00;99.90;;;;;;5090339;28;20048;-67
2022/06/27 00:49:38;;;;;;;34.00;25.13;;;18.00;99.90;;;;;;5082537;28;20044;-67
2022/06/27 00:52:07;;;;;;;25.85;22.00;;;18.00;99.90;;;;;;5084673;28;20518;-67
2022/06/27 00:54:35;;;;;;;25.80;22.15;;;18.00;99.90;;;;;;5090131;28;20048;-67
2022/06/27 00:57:00;;;;;;;20.52;18.45;;;18.00;99.90;;;;;;5089700;28;20051;-67
2022/06/27 00:59:26;;;;;;;22.02;19.75;;;18.00;99.90;;;;;;5088621;28;20416;-67
2022/06/27 01:01:52;;;;;;;23.88;19.00;;;18.00;99.90;;;;;;5071300;28;20489;-67
2022/06/27 01:04:18;;;;;;;26.83;20.00;;;18.00;99.90;;;;;;5089639;28;20059;-67
2022/06/27 01:06:43;;;;;;;26.92;20.00;;;18.10;99.90;;;;;;5089322;28;20059;-67
2022/06/27 01:09:09;;;;;;;22.08;18.80;;;18.10;99.90;;;;;;5088116;28;20534;-67
2022/06/27 01:11:35;;;;;;;25.17;20.27;;;18.10;99.90;;;;;;5089964;28;20040;-68
2022/06/27 01:14:01;;;;;;;23.42;20.30;;;18.10;99.90;;;;;;5089295;28;20056;-67
2022/06/27 01:16:27;;;;;;;24.90;19.35;;;18.10;99.90;;;;;;5076829;28;20067;-67
2022/06/27 01:18:54;;;;;;;22.48;19.70;;;18.10;99.90;;;;;;5089604;28;20044;-67
2022/06/27 01:21:23;;;;;;;34.30;26.35;;;18.00;99.90;;;;;;5089845;28;20048;-67
2022/06/27 01:23:49;;;;;;;42.15;26.98;;;18.00;99.90;;;;;;5076283;28;20058;-67
2022/06/27 01:26:17;;;;;;;29.77;24.98;;;17.90;99.90;;;;;;5089650;28;20086;-67
2022/06/27 01:28:42;;;;;;;32.50;23.52;;;17.80;99.90;;;;;;5088473;28;20052;-67
2022/06/27 01:31:12;;;;;;;36.13;24.10;;;17.60;99.90;;;;;;5081053;28;20040;-67
2022/06/27 01:33:38;;;;;;;26.13;21.80;;;17.40;99.90;;;;;;5084216;28;20059;-67
2022/06/27 01:39:06;;;;;;;25.17;21.50;;;17.50;99.90;;;;;;4995452;28;20061;-67
2022/06/27 01:41:31;;;;;;;30.77;24.13;;;17.50;99.90;;;;;;5063575;28;20051;-67
2022/06/27 01:43:57;;;;;;;27.02;21.83;;;17.60;99.90;;;;;;5087044;28;20039;-67
2022/06/27 01:46:23;;;;;;;35.03;24.67;;;17.60;99.90;;;;;;5086607;28;20405;-67
2022/06/27 01:48:49;;;;;;;24.35;21.75;;;17.60;99.90;;;;;;5087207;28;20040;-67
2022/06/27 01:51:14;;;;;;;32.28;23.80;;;17.70;99.90;;;;;;5087377;28;20123;-67
2022/06/27 01:53:40;;;;;;;27.73;22.70;;;17.70;99.90;;;;;;5087273;28;20059;-67
2022/06/27 01:56:06;;;;;;;30.15;25.10;;;17.70;99.90;;;;;;5088201;28;20044;-67
2022/06/27 01:58:34;;;;;;;36.13;24.63;;;17.70;99.90;;;;;;5086775;28;20048;-67
2022/06/27 02:00:59;;;;;;;43.03;27.92;;;17.70;99.90;;;;;;5088023;28;20040;-67
2022/06/27 02:03:25;;;;;;;36.97;27.70;;;17.70;99.90;;;;;;5087868;28;20040;-69
2022/06/27 02:05:54;;;;;;;23.42;20.92;;;17.70;99.90;;;;;;5079851;28;20665;-69
2022/06/27 02:08:21;;;;;;;27.45;22.33;;;17.60;99.90;;;;;;5077441;28;20052;-68
2022/06/27 02:10:47;;;;;;;36.38;26.27;;;17.60;99.90;;;;;;5087113;28;20044;-68
2022/06/27 02:13:13;;;;;;;37.50;28.80;;;17.60;99.90;;;;;;5085298;28;20048;-68
2022/06/27 02:16:12;;;;;;;37.50;26.90;;;17.60;99.90;;;;;;5088509;28;20109;-68
2022/06/27 02:18:40;;;;;;;29.98;24.92;;;17.60;99.90;;;;;;5037833;28;20048;-68
2022/06/27 02:21:08;;;;;;;28.55;25.23;;;17.50;99.90;;;;;;5085237;28;20083;-68
2022/06/27 02:23:33;;;;;;;36.13;26.27;;;17.60;99.90;;;;;;5082797;28;20111;-68
2022/06/27 02:26:00;;;;;;;40.47;28.58;;;17.50;99.90;;;;;;5088270;28;20147;-68
2022/06/27 02:28:27;;;;;;;51.40;27.67;;;17.50;99.90;;;;;;5081500;28;20071;-68
2022/06/27 02:30:53;;;;;;;31.25;25.58;;;17.50;99.90;;;;;;5084194;28;20120;-68
2022/06/27 02:33:19;;;;;;;33.33;28.42;;;17.50;99.90;;;;;;5078194;28;20040;-68
2022/06/27 02:35:46;;;;;;;39.38;25.40;;;17.40;99.90;;;;;;5085590;28;20043;-69
2022/06/27 02:38:14;;;;;;;41.00;28.00;;;17.30;99.90;;;;;;5087392;28;20079;-68
2022/06/27 02:40:42;;;;;;;50.35;34.60;;;17.20;99.90;;;;;;5087534;28;20120;-68
2022/06/27 02:43:08;;;;;;;46.22;32.78;;;17.10;99.90;;;;;;5079141;28;20044;-68
2022/06/27 02:45:37;;;;;;;40.78;29.95;;;17.00;99.90;;;;;;5087451;28;20036;-68
2022/06/27 02:48:03;;;;;;;42.90;29.58;;;16.90;99.90;;;;;;5086700;28;20078;-68
2022/06/27 02:50:32;;;;;;;41.33;29.25;;;16.90;99.90;;;;;;5087317;28;20048;-68
2022/06/27 02:53:02;;;;;;;47.63;28.83;;;16.80;99.90;;;;;;5083282;28;20028;-68
2022/06/27 02:55:34;;;;;;;41.40;28.38;;;16.80;99.90;;;;;;5084750;28;20497;-67
2022/06/27 02:58:02;;;;;;;40.28;30.25;;;16.90;99.90;;;;;;5087374;28;20056;-67
2022/06/27 03:00:29;;;;;;;41.15;29.38;;;16.80;99.90;;;;;;5085700;28;20051;-67
2022/06/27 03:02:56;;;;;;;43.60;30.60;;;16.80;99.90;;;;;;5086812;28;20044;-67
2022/06/27 03:05:22;;;;;;;46.50;29.58;;;16.80;99.90;;;;;;5086222;28;20040;-67
2022/06/27 03:07:48;;;;;;;39.65;27.58;;;16.70;99.90;;;;;;5086193;28;20092;-68
2022/06/27 03:10:14;;;;;;;43.00;30.85;;;16.70;99.90;;;;;;5062738;28;20084;-68
2022/06/27 03:12:40;;;;;;;44.35;28.80;;;16.70;99.90;;;;;;5086300;28;20059;-68
2022/06/27 03:15:07;;;;;;;40.45;29.02;;;16.70;99.90;;;;;;5051620;28;20051;-68
2022/06/27 03:17:32;;;;;;;49.17;31.08;;;16.60;99.90;;;;;;5065369;28;20048;-67
2022/06/27 03:19:58;;;;;;;50.65;32.97;;;16.60;99.90;;;;;;5079248;28;20044;-67
2022/06/27 03:22:23;;;;;;;48.15;33.47;;;16.60;99.90;;;;;;5068874;28;20032;-68
2022/06/27 03:24:49;;;;;;;45.53;32.38;;;16.60;99.90;;;;;;5085207;28;20151;-68
2022/06/27 03:27:15;;;;;;;44.13;31.00;;;16.60;99.90;;;;;;5078261;28;20036;-67
2022/06/27 03:29:40;;;;;;;56.67;35.55;;;16.60;99.90;;;;;;5079720;28;20044;-68
2022/06/27 03:32:07;;;;;;;55.15;35.45;;;16.60;99.90;;;;;;5086959;28;20048;-68
2022/06/27 03:34:33;;;;;;;46.20;33.10;;;16.60;99.90;;;;;;5081112;28;20489;-68
2022/06/27 03:36:59;;;;;;;38.08;26.08;;;16.60;99.90;;;;;;5073117;28;20041;-68
2022/06/27 03:39:25;;;;;;;26.42;20.23;;;16.60;99.90;;;;;;5089892;28;20039;-68
2022/06/27 03:41:51;;;;;;;30.67;19.90;;;16.50;99.90;;;;;;5071425;28;20089;-68
2022/06/27 03:44:17;;;;;;;24.50;18.65;;;16.40;99.90;;;;;;5090613;28;20123;-69
2022/06/27 03:46:43;;;;;;;26.10;16.95;;;16.30;99.90;;;;;;5091092;28;20036;-68
2022/06/27 03:51:52;;;;;;;22.05;17.55;;;16.20;99.90;;;;;;5084999;28;20087;-68
2022/06/27 03:54:18;;;;;;;20.23;15.38;;;16.10;99.90;;;;;;5090319;28;20090;-68
2022/06/27 03:56:44;;;;;;;22.02;16.55;;;16.00;99.90;;;;;;5060348;28;20090;-68
2022/06/27 03:59:10;;;;;;;20.70;15.77;;;15.90;99.90;;;;;;5090446;28;20036;-68
2022/06/27 04:01:36;;;;;;;15.90;13.65;;;15.90;99.90;;;;;;5080148;28;20051;-68
2022/06/27 04:04:02;;;;;;;15.68;13.10;;;15.80;99.90;;;;;;5087540;28;20043;-68
2022/06/27 04:06:28;;;;;;;15.63;12.30;;;15.80;99.90;;;;;;5089791;28;20063;-68
2022/06/27 04:08:54;;;;;;;12.48;10.57;;;15.70;99.90;;;;;;5089554;28;20040;-68
2022/06/27 04:11:19;;;;;;;16.33;12.13;;;15.70;99.90;;;;;;5084557;28;20116;-67
2022/06/27 04:13:45;;;;;;;15.80;12.57;;;15.70;99.90;;;;;;5086208;28;20040;-68
2022/06/27 04:16:11;;;;;;;16.35;12.48;;;15.70;99.90;;;;;;5089791;28;20404;-69
2022/06/27 04:18:36;;;;;;;15.98;12.80;;;15.80;99.90;;;;;;5088756;28;20036;-71
2022/06/27 04:21:02;;;;;;;16.02;12.60;;;15.80;99.90;;;;;;5089177;28;20044;-71
2022/06/27 04:23:28;;;;;;;24.15;13.63;;;15.80;99.90;;;;;;5079834;28;20779;-72
2022/06/27 04:25:54;;;;;;;13.95;11.63;;;15.70;99.90;;;;;;5088083;28;20040;-72
2022/06/27 04:28:19;;;;;;;18.17;11.43;;;15.60;99.90;;;;;;5071020;28;20044;-71
2022/06/27 04:30:47;;;;;;;16.40;11.75;;;15.60;99.90;;;;;;5089176;28;20051;-71
2022/06/27 04:33:13;;;;;;;13.02;10.30;;;15.50;99.90;;;;;;5089050;28;20044;-70
2022/06/27 04:35:41;;;;;;;12.82;10.63;;;15.40;99.90;;;;;;5089527;28;20122;-70
2022/06/27 04:38:07;;;;;;;11.35;9.68;;;15.40;99.90;;;;;;5084391;28;20110;-70
2022/06/27 04:40:33;;;;;;;11.68;10.45;;;15.40;99.90;;;;;;5088688;28;20501;-70
2022/06/27 04:42:59;;;;;;;11.52;9.27;;;15.40;99.90;;;;;;5088977;28;20047;-70
2022/06/27 04:45:25;;;;;;;11.00;9.88;;;15.40;99.90;;;;;;5089647;28;20114;-69
2022/06/27 04:47:52;;;;;;;14.65;10.88;;;15.30;99.90;;;;;;5088799;28;20361;-69
2022/06/27 04:50:19;;;;;;;13.95;11.15;;;15.30;99.90;;;;;;5069449;28;20055;-69
2022/06/27 04:52:45;;;;;;;12.20;9.40;;;15.20;99.90;;;;;;5088635;28;20068;-68
2022/06/27 04:55:12;;;;;;;12.45;10.25;;;15.30;99.90;;;;;;5089050;28;20389;-68
2022/06/27 04:57:42;;;;;;;11.88;10.48;;;15.30;99.90;;;;;;5087884;28;20051;-68
2022/06/27 05:00:11;;;;;;;11.02;9.77;;;15.20;99.90;;;;;;5052337;28;20094;-68
2022/06/27 05:02:36;;;;;;;17.67;11.38;;;15.30;99.90;;;;;;5087643;28;20067;-69
2022/06/27 05:05:03;;;;;;;30.80;10.95;;;15.30;99.90;;;;;;5083438;28;20067;-71
2022/06/27 05:07:30;;;;;;;16.10;11.27;;;15.30;99.90;;;;;;5087369;28;20067;-68
2022/06/27 05:09:57;;;;;;;12.13;10.15;;;15.40;99.90;;;;;;5088680;28;20416;-68
2022/06/27 05:12:24;;;;;;;12.15;10.20;;;15.40;99.90;;;;;;5088001;28;20052;-69
2022/06/27 05:14:50;;;;;;;10.05;9.05;;;15.40;99.90;;;;;;5086979;28;20044;-68
2022/06/27 05:17:16;;;;;;;12.25;9.05;;;15.40;99.90;;;;;;5088445;28;20118;-68
2022/06/27 05:19:42;;;;;;;14.57;10.82;;;15.50;99.90;;;;;;5088803;28;20043;-68
2022/06/27 05:22:08;;;;;;;14.23;10.27;;;15.50;99.90;;;;;;5087602;28;20089;-68
2022/06/27 05:24:34;;;;;;;11.57;10.32;;;15.50;99.90;;;;;;5069760;28;20048;-68
2022/06/27 05:27:00;;;;;;;12.10;9.25;;;15.50;99.90;;;;;;5087562;28;20101;-68
2022/06/27 05:29:26;;;;;;;10.65;8.80;;;15.60;99.90;;;;;;5087497;28;20048;-68
2022/06/27 05:31:52;;;;;;;11.80;10.13;;;15.60;99.90;;;;;;5075343;28;20040;-68
2022/06/27 05:34:17;;;;;;;11.23;8.93;;;15.60;99.90;;;;;;5081289;28;20488;-68
2022/06/27 05:36:43;;;;;;;11.23;9.38;;;15.60;99.90;;;;;;5087329;28;20447;-67
2022/06/27 05:39:09;;;;;;;9.65;8.65;;;15.70;99.90;;;;;;5085389;28;20121;-68
2022/06/27 05:41:35;;;;;;;10.48;8.52;;;15.80;99.90;;;;;;5087168;28;20115;-68
2022/06/27 05:44:01;;;;;;;11.88;10.57;;;15.80;99.90;;;;;;5087105;28;20142;-68
2022/06/27 05:46:27;;;;;;;17.60;9.23;;;15.90;99.90;;;;;;5084674;28;20068;-67
2022/06/27 05:48:53;;;;;;;10.77;9.45;;;16.00;99.90;;;;;;5079207;28;20048;-67
2022/06/27 05:51:20;;;;;;;11.65;8.75;;;16.10;99.90;;;;;;5066962;28;20151;-68
2022/06/27 05:53:49;;;;;;;9.77;8.88;;;16.10;99.90;;;;;;5085633;28;20036;-68
2022/06/27 05:56:15;;;;;;;12.57;8.65;;;16.20;99.90;;;;;;5049411;28;20051;-68
2022/06/27 05:58:42;;;;;;;12.00;9.93;;;16.30;99.90;;;;;;5084097;28;20066;-68
2022/06/27 06:01:09;;;;;;;11.93;8.63;;;16.30;99.90;;;;;;5087744;28;20043;-68
2022/06/27 06:03:37;;;;;;;10.27;9.30;;;16.40;99.90;;;;;;5085016;28;20052;-68
2022/06/27 06:06:04;;;;;;;10.23;8.52;;;16.40;99.90;;;;;;5067465;28;20059;-67
2022/06/27 06:08:31;;;;;;;12.30;9.05;;;16.40;99.90;;;;;;5081974;28;20047;-67
2022/06/27 06:10:57;;;;;;;12.52;8.95;;;16.50;99.90;;;;;;5079435;28;20151;-67
2022/06/27 06:13:24;;;;;;;11.50;9.40;;;16.50;99.90;;;;;;5068627;28;20048;-67
2022/06/27 06:15:52;;;;;;;9.00;8.10;;;16.50;99.90;;;;;;5082012;28;20047;-67
2022/06/27 06:18:19;;;;;;;11.13;9.13;;;16.60;99.90;;;;;;5080231;28;20413;-67
2022/06/27 06:20:45;;;;;;;10.20;9.20;;;16.70;99.90;;;;;;5086926;28;20106;-67
2022/06/27 06:23:11;;;;;;;10.25;8.65;;;16.70;99.90;;;;;;5086835;28;20504;-67
2022/06/27 06:25:37;;;;;;;9.85;8.77;;;16.70;99.90;;;;;;5080123;28;20181;-67
2022/06/27 06:28:04;;;;;;;12.20;9.70;;;16.80;99.90;;;;;;5078626;28;20425;-67
2022/06/27 06:30:33;;;;;;;12.18;8.98;;;16.80;99.90;;;;;;5062406;28;20055;-67
2022/06/27 06:33:02;;;;;;;13.57;9.35;;;16.80;99.90;;;;;;5087503;28;20052;-67
2022/06/27 06:35:30;;;;;;;9.70;8.70;;;16.80;99.90;;;;;;5084272;28;20036;-68
2022/06/27 06:37:58;;;;;;;10.23;8.65;;;16.80;99.90;;;;;;5085720;28;20051;-67
2022/06/27 06:40:23;;;;;;;9.70;8.63;;;16.80;99.90;;;;;;5069345;28;20059;-68
2022/06/27 06:42:49;;;;;;;9.43;8.20;;;16.80;99.90;;;;;;5079339;28;20036;-68
2022/06/27 06:45:15;;;;;;;11.48;9.00;;;16.80;99.90;;;;;;5083631;28;20056;-68
2022/06/27 06:47:44;;;;;;;10.35;8.82;;;16.90;99.90;;;;;;5074617;28;20044;-67
2022/06/27 06:50:15;;;;;;;15.25;8.80;;;16.90;99.90;;;;;;5082939;28;20181;-68
2022/06/27 06:52:41;;;;;;;8.50;7.55;;;16.80;99.90;;;;;;5086015;28;20115;-67
2022/06/27 06:55:09;;;;;;;11.27;10.00;;;16.80;99.90;;;;;;5083130;28;20044;-67
2022/06/27 06:57:37;;;;;;;9.00;8.05;;;16.80;99.90;;;;;;5082832;28;20123;-67
2022/06/27 07:00:08;;;;;;;10.80;9.70;;;16.80;99.90;;;;;;5087071;28;20048;-67
2022/06/27 07:02:34;;;;;;;9.00;8.18;;;16.90;99.90;;;;;;5084605;28;20044;-67
2022/06/27 07:05:02;;;;;;;9.15;8.02;;;16.90;99.90;;;;;;5080953;28;20044;-67
2022/06/27 07:07:28;;;;;;;13.60;9.80;;;17.00;99.90;;;;;;5085193;28;20516;-67
2022/06/27 07:09:54;;;;;;;9.52;8.57;;;17.10;99.90;;;;;;5086099;28;20318;-67
2022/06/27 07:12:20;;;;;;;11.85;10.40;;;17.10;99.90;;;;;;5087391;28;20036;-67
2022/06/27 07:14:47;;;;;;;13.23;10.77;;;17.20;99.90;;;;;;5087986;28;20657;-67
2022/06/27 07:17:13;;;;;;;10.52;9.00;;;17.10;99.90;;;;;;5088813;28;20044;-67
2022/06/27 07:19:38;;;;;;;12.05;9.88;;;17.20;99.90;;;;;;5090909;28;20403;-67
2022/06/27 07:22:06;;;;;;;12.38;9.32;;;17.20;99.90;;;;;;5090769;28;20119;-67
2022/06/27 07:24:32;;;;;;;9.90;8.23;;;17.10;99.90;;;;;;5077547;28;20064;-67
2022/06/27 07:26:59;;;;;;;13.10;9.15;;;17.10;99.90;;;;;;5079212;28;20405;-67
2022/06/27 07:29:26;;;;;;;9.45;7.85;;;17.10;99.90;;;;;;5089813;28;20036;-67
2022/06/27 07:31:53;;;;;;;13.25;8.77;;;17.20;99.90;;;;;;5069696;28;20040;-67
2022/06/27 07:34:21;;;;;;;12.27;9.25;;;17.20;99.90;;;;;;5087073;28;20067;-68
2022/06/27 07:36:48;;;;;;;9.18;8.27;;;17.30;99.90;;;;;;5090591;28;20067;-69
2022/06/27 07:39:14;;;;;;;9.32;8.43;;;17.20;99.90;;;;;;5082515;28;20094;-68
2022/06/27 07:41:40;;;;;;;12.50;9.50;;;17.20;99.90;;;;;;5069130;28;20043;-69
2022/06/27 07:44:06;;;;;;;10.82;9.27;;;17.20;99.90;;;;;;5085123;28;20044;-69
2022/06/27 07:46:34;;;;;;;9.20;7.70;;;17.20;99.90;;;;;;5067917;28;20050;-69
2022/06/27 07:49:00;;;;;;;11.20;10.07;;;17.20;99.90;;;;;;5063659;28;20501;-68
2022/06/27 07:51:26;;;;;;;11.75;10.07;;;17.30;99.90;;;;;;5088793;28;20036;-68
2022/06/27 07:53:52;;;;;;;12.40;9.32;;;17.30;99.90;;;;;;5085246;28;20040;-68
2022/06/27 07:56:20;;;;;;;10.40;9.40;;;17.30;99.90;;;;;;5089737;28;20105;-68
2022/06/27 07:58:48;;;;;;;10.55;9.13;;;17.30;99.90;;;;;;5088455;28;20120;-68
2022/06/27 08:01:15;;;;;;;13.88;9.27;;;17.30;99.90;;;;;;5089866;28;20609;-68
2022/06/27 08:03:44;;;;;;;10.50;9.50;;;17.40;99.90;;;;;;5085032;28;20144;-68
2022/06/27 08:06:14;;;;;;;12.07;10.88;;;17.50;99.90;;;;;;5090460;28;20067;-69
2022/06/27 08:08:48;;;;;;;11.63;10.23;;;17.60;99.90;;;;;;5089349;28;20091;-69
2022/06/27 08:11:17;;;;;;;12.45;9.95;;;17.60;99.90;;;;;;5057956;28;20036;-68
2022/06/27 08:13:45;;;;;;;11.75;9.07;;;17.60;99.90;;;;;;5069513;28;20123;-68
2022/06/27 08:16:14;;;;;;;13.23;8.75;;;17.70;99.90;;;;;;5089006;28;20050;-68
2022/06/27 08:18:46;;;;;;;10.73;9.48;;;17.60;99.90;;;;;;5088988;28;20032;-68
2022/06/27 08:21:14;;;;;;;10.38;9.27;;;17.60;99.90;;;;;;5067504;28;20055;-68
2022/06/27 08:23:40;;;;;;;11.30;9.90;;;17.60;99.90;;;;;;5079316;28;20040;-68
2022/06/27 08:26:08;;;;;;;14.70;8.63;;;17.60;99.90;;;;;;5088363;28;20523;-68
2022/06/27 08:28:38;;;;;;;12.18;9.43;;;17.60;99.90;;;;;;5089294;28;20508;-68
2022/06/27 08:31:08;;;;;;;13.43;10.35;;;17.70;99.90;;;;;;5089076;28;20546;-68
2022/06/27 08:33:35;;;;;;;12.20;10.68;;;17.80;99.90;;;;;;5089002;28;20040;-68
2022/06/27 08:36:02;;;;;;;11.10;10.00;;;17.80;99.90;;;;;;5057173;28;20047;-68
2022/06/27 08:38:29;;;;;;;23.95;12.50;;;17.80;99.90;;;;;;5064144;28;20044;-68
2022/06/27 08:40:55;;;;;;;11.40;10.30;;;17.90;99.90;;;;;;5071545;28;20435;-68
2022/06/27 08:43:23;;;;;;;13.18;11.70;;;17.90;99.90;;;;;;5089785;28;20036;-68
2022/06/27 08:45:51;;;;;;;15.18;13.68;;;17.90;99.90;;;;;;5089418;28;20138;-68
2022/06/27 08:48:17;;;;;;;20.02;12.77;;;17.90;99.90;;;;;;5088823;28;20078;-68
2022/06/27 08:50:45;;;;;;;15.70;12.80;;;18.00;99.90;;;;;;5089058;28;20504;-68
2022/06/27 08:53:12;;;;;;;17.67;12.25;;;18.00;99.90;;;;;;5085386;28;20920;-68
2022/06/27 08:55:44;;;;;;;14.60;13.13;;;18.10;99.90;;;;;;5071178;28;20452;-68
2022/06/27 08:58:11;;;;;;;14.90;11.65;;;18.10;99.90;;;;;;5089446;28;20048;-67
2022/06/27 09:00:40;;;;;;;15.32;13.80;;;18.10;99.90;;;;;;5088592;28;20453;-68
2022/06/27 09:03:07;;;;;;;14.27;12.85;;;18.20;99.90;;;;;;5080580;28;20051;-69
2022/06/27 09:05:34;;;;;;;14.35;12.52;;;18.20;99.90;;;;;;5073578;28;20477;-68
2022/06/27 09:08:06;;;;;;;14.63;13.13;;;18.20;99.90;;;;;;5084846;28;20139;-69
2022/06/27 09:10:41;;;;;;;15.35;13.70;;;18.20;99.90;;;;;;5067772;28;20048;-68
2022/06/27 09:13:08;;;;;;;14.38;12.50;;;18.20;99.90;;;;;;5085636;28;20059;-68
2022/06/27 09:15:48;;;;;;;12.27;11.00;;;18.20;99.90;;;;;;5086115;28;20500;-68
2022/06/27 09:18:20;;;;;;;14.65;13.18;;;18.30;99.90;;;;;;5058409;28;20051;-68
2022/06/27 09:21:09;;;;;;;13.25;11.88;;;18.30;99.90;;;;;;5086583;28;20047;-68
2022/06/27 09:23:49;;;;;;;13.40;12.05;;;18.30;99.90;;;;;;5083154;28;20064;-68
2022/06/27 09:26:30;;;;;;;14.32;12.45;;;18.30;99.90;;;;;;5077074;28;20052;-68
2022/06/27 09:29:00;;;;;;;12.48;11.13;;;18.30;99.90;;;;;;5082935;28;20501;-67
2022/06/27 09:31:28;;;;;;;13.98;12.25;;;18.30;99.90;;;;;;5086980;28;20040;-67
2022/06/27 09:34:16;;;;;;;13.48;11.88;;;18.30;99.90;;;;;;5081405;28;20040;-67
2022/06/27 09:36:47;;;;;;;17.45;13.70;;;18.40;99.90;;;;;;5083448;28;20048;-67
2022/06/27 09:39:36;;;;;;;14.02;12.65;;;18.30;99.90;;;;;;5087788;28;20054;-68
2022/06/27 09:42:08;;;;;;;15.43;13.55;;;18.30;99.90;;;;;;5078492;28;20436;-69
2022/06/27 09:44:38;;;;;;;13.35;12.05;;;18.30;99.90;;;;;;5084056;28;20123;-69
2022/06/27 09:47:13;;;;;;;19.33;13.65;;;18.20;99.90;;;;;;5068385;28;20051;-69
2022/06/27 09:49:41;;;;;;;17.58;14.32;;;18.20;99.90;;;;;;5079535;28;20401;-68
2022/06/27 09:52:18;;;;;;;11.40;10.25;;;18.20;99.90;;;;;;5079540;28;20048;-68
2022/06/27 09:54:47;;;;;;;12.38;10.70;;;18.30;99.90;;;;;;5084373;28;20041;-68
2022/06/27 09:57:14;;;;;;;13.70;11.07;;;18.30;99.90;;;;;;5075559;28;20047;-68
2022/06/27 09:59:42;;;;;;;11.70;10.45;;;18.30;99.90;;;;;;5084488;28;20436;-68
2022/06/27 10:02:08;;;;;;;;;;;18.30;99.90;;;;;;5088418;28;20105;-68
2022/06/27 10:04:37;;;;;;;12.60;10.40;;;18.30;99.90;;;;;;5087141;28;19959;-68
2022/06/27 10:07:07;;;;;;;16.80;12.55;;;18.30;99.90;;;;;;5079366;28;20109;-69
2022/06/27 10:09:35;;;;;;;16.45;14.23;;;18.30;99.90;;;;;;5084465;28;20040;-69
2022/06/27 10:12:23;;;;;;;12.77;11.50;;;18.30;99.90;;;;;;5085661;28;20048;-69
2022/06/27 10:15:11;;;;;;;13.98;12.68;;;18.30;99.90;;;;;;5062208;28;20045;-70
2022/06/27 10:17:41;;;;;;;;;;;18.40;99.90;;;;;;5054534;28;20044;-70
2022/06/27 10:20:12;;;;;;;15.25;13.60;;;18.30;99.90;;;;;;5077338;28;19920;-70
2022/06/27 10:22:38;;;;;;;18.85;13.65;;;18.40;99.90;;;;;;5072449;28;20044;-70
2022/06/27 10:25:26;;;;;;;13.85;12.48;;;18.50;99.90;;;;;;5087744;28;20097;-70
2022/06/27 10:28:14;;;;;;;13.68;12.38;;;18.50;99.90;;;;;;5066947;28;20039;-70
2022/06/27 10:30:46;;;;;;;12.57;11.23;;;18.50;99.90;;;;;;5083788;28;20101;-70
2022/06/27 10:33:21;;;;;;;13.25;11.95;;;18.60;99.90;;;;;;5075395;28;20036;-70
2022/06/27 10:36:11;;;;;;;16.42;13.00;;;18.60;99.90;;;;;;5058986;28;20040;-70
2022/06/27 10:38:39;;;;;;;12.90;11.55;;;18.60;99.90;;;;;;5085397;28;20119;-70
2022/06/27 10:41:10;;;;;;;16.15;14.13;;;18.60;99.90;;;;;;5087642;28;20044;-70
2022/06/27 10:43:47;;;;;;;16.90;13.38;;;18.70;99.90;;;;;;5087454;28;20036;-69
2022/06/27 10:46:15;;;;;;;15.47;13.87;;;18.70;99.90;;;;;;5087807;28;20540;-69
2022/06/27 10:48:47;;;;;;;14.77;13.27;;;18.70;99.90;;;;;;5082009;28;20390;-69
2022/06/27 10:51:29;;;;;;;17.15;15.27;;;18.70;99.90;;;;;;5083148;28;20087;-69
2022/06/27 10:54:04;;;;;;;18.13;16.15;;;18.70;99.90;;;;;;5087652;28;20121;-69
2022/06/27 10:56:31;;;;;;;18.75;15.88;;;18.80;99.90;;;;;;5091171;28;20040;-69
2022/06/27 10:59:03;;;;;;;14.63;13.23;;;18.80;99.90;;;;;;5086662;28;20050;-69
2022/06/27 11:01:31;;;;;;;14.52;12.88;;;18.90;99.90;;;;;;5087647;28;20039;-68
2022/06/27 11:03:58;;;;;;;17.15;13.82;;;18.80;99.90;;;;;;5091493;28;20093;-68
2022/06/27 11:06:24;;;;;;;14.77;13.23;;;18.80;99.90;;;;;;5088752;28;20066;-69
2022/06/27 11:08:52;;;;;;;14.57;10.68;;;18.80;99.90;;;;;;5089056;28;20066;-68
2022/06/27 11:11:20;;;;;;;15.35;13.75;;;18.80;99.90;;;;;;5078822;28;20045;-68
2022/06/27 11:13:47;;;;;;;12.27;11.05;;;18.90;99.90;;;;;;5077800;28;20387;-68
2022/06/27 11:16:17;;;;;;;13.57;11.05;;;18.90;99.90;;;;;;5066553;28;20036;-68
2022/06/27 11:18:54;;;;;;;14.88;13.18;;;19.00;99.90;;;;;;5086542;28;20840;-68
2022/06/27 11:21:25;;;;;;;15.03;12.90;;;19.00;99.90;;;;;;5082395;28;20052;-68
2022/06/27 11:23:53;;;;;;;11.10;9.82;;;19.00;99.90;;;;;;5083543;28;20274;-68
2022/06/27 11:26:22;;;;;;;;;;;19.10;99.90;;;;;;5080559;28;20041;-68
2022/06/27 11:34:18;;;;;;;14.43;11.20;;;19.20;99.90;;;;;;5086673;28;20048;-67
2022/06/27 11:36:45;;;;;;;13.27;9.95;;;19.20;99.90;;;;;;5083558;28;20036;-67
2022/06/27 11:39:15;;;;;;;12.23;11.13;;;19.20;99.90;;;;;;5087717;28;20040;-67
2022/06/27 11:41:41;;;;;;;12.02;10.93;;;19.30;99.90;;;;;;5085613;28;20725;-68
2022/06/27 11:44:10;;;;;;;11.43;10.02;;;19.30;99.90;;;;;;5089740;28;20049;-68
2022/06/27 11:46:49;;;;;;;10.90;8.05;;;19.30;99.90;;;;;;5089379;28;20126;-68
2022/06/27 11:49:26;;;;;;;9.05;8.20;;;19.40;99.90;;;;;;5090302;28;20073;-68
2022/06/27 11:52:01;;;;;;;16.98;8.88;;;19.40;99.90;;;;;;5090382;28;20043;-68
2022/06/27 11:54:43;;;;;;;10.18;8.90;;;19.40;99.90;;;;;;5078297;28;20043;-68
2022/06/27 11:57:29;;;;;;;11.00;8.30;;;19.50;99.90;;;;;;5078763;28;20076;-68
2022/06/27 11:59:56;;;;;;;11.65;9.38;;;19.50;99.90;;;;;;5079869;28;20036;-68
2022/06/27 12:03:05;;;;;;;9.63;8.73;;;19.50;99.90;;;;;;5078201;28;20039;-68
2022/06/27 12:05:31;;;;;;;10.40;9.27;;;19.60;99.90;;;;;;5070471;28;20048;-69
2022/06/27 12:08:00;;;;;;;8.23;7.22;;;19.60;99.90;;;;;;5086012;28;20517;-68
2022/06/27 12:10:36;;;;;;;8.02;6.65;;;19.60;99.90;;;;;;5079354;28;20044;-69
2022/06/27 12:13:03;;;;;;;7.60;6.82;;;19.60;99.90;;;;;;5079318;28;20119;-69
2022/06/27 12:15:28;;;;;;;12.32;8.55;;;19.50;99.90;;;;;;5079447;28;20048;-69
2022/06/27 12:17:59;;;;;;;9.82;7.93;;;19.60;99.90;;;;;;5079852;28;20035;-69
2022/06/27 12:20:26;;;;;;;8.48;7.20;;;19.60;99.90;;;;;;5089104;28;20036;-69
2022/06/27 12:22:52;;;;;;;9.02;6.97;;;19.60;99.90;;;;;;5087495;28;20089;-69
2022/06/27 12:25:19;;;;;;;10.23;8.43;;;19.70;99.90;;;;;;5086778;28;20089;-69
2022/06/27 12:27:45;;;;;;;10.07;9.02;;;19.70;99.90;;;;;;5074612;28;20041;-69
2022/06/27 12:30:12;;;;;;;8.90;8.00;;;19.70;99.90;;;;;;5078820;28;20036;-68
2022/06/27 12:32:38;;;;;;;8.98;8.27;;;19.80;99.90;;;;;;5089112;28;20048;-68
2022/06/27 12:35:05;;;;;;;10.23;9.10;;;19.70;99.90;;;;;;5089497;28;20119;-68
2022/06/27 12:37:30;;;;;;;11.55;9.18;;;19.60;99.90;;;;;;5079063;28;20040;-68
2022/06/27 12:39:57;;;;;;;8.95;8.20;;;19.70;99.90;;;;;;5082660;28;20043;-68
2022/06/27 12:42:23;;;;;;;9.20;8.40;;;19.70;99.90;;;;;;5087391;28;20804;-68
2022/06/27 12:44:49;;;;;;;9.50;8.60;;;19.60;99.90;;;;;;5089204;28;20044;-68
2022/06/27 12:47:14;;;;;;;10.88;9.75;;;19.70;99.90;;;;;;5087521;28;20040;-67
2022/06/27 12:49:40;;;;;;;9.40;8.45;;;19.70;99.90;;;;;;5087789;28;20074;-67